sensor_id;sensor_type;location;lat;lon;timestamp;P1;durP1;ratioP1;P2;durP2;ratioP2
15246;SDS011;7726;48.820;9.248;2023-03-23T00:02:05;3.35;;;2.28;;
15246;SDS011;7726;48.820;9.248;2023-03-23T00:04:32;3.97;;;2.40;;
15246;SDS011;7726;48.820;9.248;2023-03-23T00:06:59;3.58;;;2.10;;
15246;SDS011;7726;48.820;9.248;2023-03-23T00:09:27;2.90;;;1.88;;
15246;SDS011;7726;48.820;9.248;2023-03-23T00:11:59;2.35;;;2.10;;
15246;SDS011;7726;48.820;9.248;2023-03-23T00:14:31;2.40;;;2.00;;
15246;SDS011;7726;48.820;9.248;2023-03-23T00:17:07;2.67;;;1.92;;
15246;SDS011;7726;48.820;9.248;2023-03-23T00:19:36;2.58;;;2.20;;
15246;SDS011;7726;48.820;9.248;2023-03-23T00:22:10;3.05;;;1.88;;
15246;SDS011;7726;48.820;9.248;2023-03-23T00:24:37;6.78;;;2.40;;
15246;SDS011;7726;48.820;9.248;2023-03-23T00:27:04;4.82;;;2.28;;
15246;SDS011;7726;48.820;9.248;2023-03-23T00:29:33;3.28;;;2.42;;
15246;SDS011;7726;48.820;9.248;2023-03-23T00:32:01;5.30;;;2.38;;
15246;SDS011;7726;48.820;9.248;2023-03-23T00:34:30;4.05;;;2.72;;
15246;SDS011;7726;48.820;9.248;2023-03-23T00:36:58;3.92;;;2.38;;
15246;SDS011;7726;48.820;9.248;2023-03-23T00:39:26;3.60;;;2.78;;
15246;SDS011;7726;48.820;9.248;2023-03-23T00:41:54;3.08;;;2.25;;
15246;SDS011;7726;48.820;9.248;2023-03-23T00:44:26;6.03;;;2.60;;
15246;SDS011;7726;48.820;9.248;2023-03-23T00:46:53;3.28;;;2.22;;
15246;SDS011;7726;48.820;9.248;2023-03-23T00:49:21;5.03;;;1.95;;
15246;SDS011;7726;48.820;9.248;2023-03-23T00:51:51;3.03;;;2.10;;
15246;SDS011;7726;48.820;9.248;2023-03-23T00:54:19;2.53;;;1.88;;
15246;SDS011;7726;48.820;9.248;2023-03-23T00:56:46;1.67;;;1.58;;
15246;SDS011;7726;48.820;9.248;2023-03-23T00:59:13;1.60;;;1.50;;
15246;SDS011;7726;48.820;9.248;2023-03-23T01:01:40;1.92;;;1.70;;
15246;SDS011;7726;48.820;9.248;2023-03-23T01:04:08;1.98;;;1.40;;
15246;SDS011;7726;48.820;9.248;2023-03-23T01:06:37;2.15;;;1.70;;
15246;SDS011;7726;48.820;9.248;2023-03-23T01:09:06;1.45;;;1.35;;
15246;SDS011;7726;48.820;9.248;2023-03-23T01:11:34;1.50;;;1.40;;
15246;SDS011;7726;48.820;9.248;2023-03-23T01:14:02;2.45;;;1.70;;
15246;SDS011;7726;48.820;9.248;2023-03-23T01:16:29;2.30;;;1.88;;
15246;SDS011;7726;48.820;9.248;2023-03-23T01:18:56;1.73;;;1.60;;
15246;SDS011;7726;48.820;9.248;2023-03-23T01:21:23;1.73;;;1.48;;
15246;SDS011;7726;48.820;9.248;2023-03-23T01:23:51;2.25;;;1.80;;
15246;SDS011;7726;48.820;9.248;2023-03-23T01:26:20;4.25;;;2.10;;
15246;SDS011;7726;48.820;9.248;2023-03-23T01:28:47;2.58;;;2.00;;
15246;SDS011;7726;48.820;9.248;2023-03-23T01:31:15;3.25;;;2.10;;
15246;SDS011;7726;48.820;9.248;2023-03-23T01:33:42;4.00;;;2.70;;
15246;SDS011;7726;48.820;9.248;2023-03-23T01:36:10;4.93;;;2.20;;
15246;SDS011;7726;48.820;9.248;2023-03-23T01:38:37;3.13;;;2.60;;
15246;SDS011;7726;48.820;9.248;2023-03-23T01:41:05;3.40;;;2.60;;
15246;SDS011;7726;48.820;9.248;2023-03-23T01:43:33;3.83;;;2.58;;
15246;SDS011;7726;48.820;9.248;2023-03-23T01:46:01;3.80;;;2.50;;
15246;SDS011;7726;48.820;9.248;2023-03-23T01:48:29;3.22;;;2.40;;
15246;SDS011;7726;48.820;9.248;2023-03-23T01:50:58;2.45;;;2.25;;
15246;SDS011;7726;48.820;9.248;2023-03-23T01:53:28;2.67;;;1.92;;
15246;SDS011;7726;48.820;9.248;2023-03-23T01:55:58;2.90;;;2.10;;
15246;SDS011;7726;48.820;9.248;2023-03-23T01:58:26;2.65;;;2.40;;
15246;SDS011;7726;48.820;9.248;2023-03-23T02:00:56;2.80;;;2.30;;
15246;SDS011;7726;48.820;9.248;2023-03-23T02:03:25;2.70;;;2.35;;
15246;SDS011;7726;48.820;9.248;2023-03-23T02:05:53;4.30;;;2.38;;
15246;SDS011;7726;48.820;9.248;2023-03-23T02:08:23;4.30;;;2.42;;
15246;SDS011;7726;48.820;9.248;2023-03-23T02:10:51;4.18;;;2.22;;
15246;SDS011;7726;48.820;9.248;2023-03-23T02:13:19;2.78;;;2.03;;
15246;SDS011;7726;48.820;9.248;2023-03-23T02:15:49;5.28;;;2.05;;
15246;SDS011;7726;48.820;9.248;2023-03-23T02:18:23;2.85;;;2.05;;
15246;SDS011;7726;48.820;9.248;2023-03-23T02:20:59;2.30;;;2.10;;
15246;SDS011;7726;48.820;9.248;2023-03-23T02:26:19;2.47;;;2.28;;
15246;SDS011;7726;48.820;9.248;2023-03-23T02:29:00;4.22;;;2.50;;
15246;SDS011;7726;48.820;9.248;2023-03-23T02:31:37;3.60;;;2.47;;
15246;SDS011;7726;48.820;9.248;2023-03-23T02:34:11;2.63;;;2.10;;
15246;SDS011;7726;48.820;9.248;2023-03-23T02:36:44;3.15;;;2.33;;
15246;SDS011;7726;48.820;9.248;2023-03-23T02:39:13;2.30;;;2.10;;
15246;SDS011;7726;48.820;9.248;2023-03-23T02:41:43;4.80;;;2.00;;
15246;SDS011;7726;48.820;9.248;2023-03-23T02:44:12;2.58;;;1.80;;
15246;SDS011;7726;48.820;9.248;2023-03-23T02:46:40;1.98;;;1.60;;
15246;SDS011;7726;48.820;9.248;2023-03-23T02:49:08;3.35;;;2.30;;
15246;SDS011;7726;48.820;9.248;2023-03-23T02:51:37;2.47;;;1.80;;
15246;SDS011;7726;48.820;9.248;2023-03-23T02:54:05;3.38;;;1.90;;
15246;SDS011;7726;48.820;9.248;2023-03-23T02:56:33;2.17;;;1.70;;
15246;SDS011;7726;48.820;9.248;2023-03-23T02:59:01;2.28;;;2.08;;
15246;SDS011;7726;48.820;9.248;2023-03-23T03:04:14;3.13;;;1.88;;
15246;SDS011;7726;48.820;9.248;2023-03-23T03:06:45;2.22;;;2.00;;
15246;SDS011;7726;48.820;9.248;2023-03-23T03:09:15;2.30;;;2.10;;
15246;SDS011;7726;48.820;9.248;2023-03-23T03:11:45;2.58;;;2.17;;
15246;SDS011;7726;48.820;9.248;2023-03-23T03:14:17;3.30;;;1.90;;
15246;SDS011;7726;48.820;9.248;2023-03-23T03:16:47;2.50;;;1.73;;
15246;SDS011;7726;48.820;9.248;2023-03-23T03:19:19;2.10;;;1.90;;
15246;SDS011;7726;48.820;9.248;2023-03-23T03:21:48;8.00;;;2.13;;
15246;SDS011;7726;48.820;9.248;2023-03-23T03:24:18;1.98;;;1.65;;
15246;SDS011;7726;48.820;9.248;2023-03-23T03:26:46;1.98;;;1.70;;
15246;SDS011;7726;48.820;9.248;2023-03-23T03:29:14;4.45;;;2.30;;
15246;SDS011;7726;48.820;9.248;2023-03-23T03:31:43;2.58;;;2.20;;
15246;SDS011;7726;48.820;9.248;2023-03-23T03:34:12;2.70;;;2.47;;
15246;SDS011;7726;48.820;9.248;2023-03-23T03:36:42;4.18;;;2.75;;
15246;SDS011;7726;48.820;9.248;2023-03-23T03:39:12;5.38;;;2.92;;
15246;SDS011;7726;48.820;9.248;2023-03-23T03:41:41;4.22;;;3.15;;
15246;SDS011;7726;48.820;9.248;2023-03-23T03:44:08;3.45;;;3.03;;
15246;SDS011;7726;48.820;9.248;2023-03-23T03:46:36;4.70;;;3.72;;
15246;SDS011;7726;48.820;9.248;2023-03-23T03:49:04;3.50;;;2.90;;
15246;SDS011;7726;48.820;9.248;2023-03-23T03:51:31;3.47;;;2.95;;
15246;SDS011;7726;48.820;9.248;2023-03-23T03:53:59;2.88;;;2.65;;
15246;SDS011;7726;48.820;9.248;2023-03-23T03:56:28;5.03;;;3.03;;
15246;SDS011;7726;48.820;9.248;2023-03-23T03:58:57;4.60;;;2.60;;
15246;SDS011;7726;48.820;9.248;2023-03-23T04:01:24;4.63;;;2.63;;
15246;SDS011;7726;48.820;9.248;2023-03-23T04:03:53;4.35;;;2.60;;
15246;SDS011;7726;48.820;9.248;2023-03-23T04:06:21;3.58;;;1.95;;
15246;SDS011;7726;48.820;9.248;2023-03-23T04:08:48;2.80;;;2.30;;
15246;SDS011;7726;48.820;9.248;2023-03-23T04:11:15;3.88;;;1.80;;
15246;SDS011;7726;48.820;9.248;2023-03-23T04:13:44;4.15;;;1.83;;
15246;SDS011;7726;48.820;9.248;2023-03-23T04:16:11;4.45;;;2.25;;
15246;SDS011;7726;48.820;9.248;2023-03-23T04:18:38;3.55;;;2.00;;
15246;SDS011;7726;48.820;9.248;2023-03-23T04:21:07;2.42;;;1.95;;
15246;SDS011;7726;48.820;9.248;2023-03-23T04:23:35;2.17;;;1.70;;
15246;SDS011;7726;48.820;9.248;2023-03-23T04:26:03;2.33;;;2.13;;
15246;SDS011;7726;48.820;9.248;2023-03-23T04:28:31;2.13;;;1.92;;
15246;SDS011;7726;48.820;9.248;2023-03-23T04:31:00;4.07;;;2.05;;
15246;SDS011;7726;48.820;9.248;2023-03-23T04:33:28;3.78;;;1.90;;
15246;SDS011;7726;48.820;9.248;2023-03-23T04:35:56;2.95;;;2.22;;
15246;SDS011;7726;48.820;9.248;2023-03-23T04:38:26;2.83;;;2.15;;
15246;SDS011;7726;48.820;9.248;2023-03-23T04:40:54;2.00;;;1.80;;
15246;SDS011;7726;48.820;9.248;2023-03-23T04:43:22;3.47;;;2.17;;
15246;SDS011;7726;48.820;9.248;2023-03-23T04:45:52;5.38;;;2.15;;
15246;SDS011;7726;48.820;9.248;2023-03-23T04:48:22;3.88;;;2.58;;
15246;SDS011;7726;48.820;9.248;2023-03-23T04:50:49;3.40;;;2.10;;
15246;SDS011;7726;48.820;9.248;2023-03-23T04:53:17;3.22;;;2.22;;
15246;SDS011;7726;48.820;9.248;2023-03-23T04:55:44;2.63;;;2.25;;
15246;SDS011;7726;48.820;9.248;2023-03-23T04:58:12;2.60;;;2.10;;
15246;SDS011;7726;48.820;9.248;2023-03-23T05:00:41;3.75;;;2.22;;
15246;SDS011;7726;48.820;9.248;2023-03-23T05:03:14;1.77;;;1.67;;
15246;SDS011;7726;48.820;9.248;2023-03-23T05:05:43;2.20;;;1.63;;
15246;SDS011;7726;48.820;9.248;2023-03-23T05:08:12;1.77;;;1.67;;
15246;SDS011;7726;48.820;9.248;2023-03-23T05:10:39;2.15;;;1.90;;
15246;SDS011;7726;48.820;9.248;2023-03-23T05:13:06;3.20;;;2.20;;
15246;SDS011;7726;48.820;9.248;2023-03-23T05:15:34;4.60;;;1.90;;
15246;SDS011;7726;48.820;9.248;2023-03-23T05:18:01;3.50;;;2.03;;
15246;SDS011;7726;48.820;9.248;2023-03-23T05:20:28;2.50;;;1.98;;
15246;SDS011;7726;48.820;9.248;2023-03-23T05:22:57;2.95;;;1.67;;
15246;SDS011;7726;48.820;9.248;2023-03-23T05:25:24;3.58;;;2.60;;
15246;SDS011;7726;48.820;9.248;2023-03-23T05:27:51;2.97;;;2.15;;
15246;SDS011;7726;48.820;9.248;2023-03-23T05:30:18;3.72;;;2.20;;
15246;SDS011;7726;48.820;9.248;2023-03-23T05:32:46;3.28;;;2.22;;
15246;SDS011;7726;48.820;9.248;2023-03-23T05:35:15;2.70;;;2.17;;
15246;SDS011;7726;48.820;9.248;2023-03-23T05:37:43;4.20;;;2.40;;
15246;SDS011;7726;48.820;9.248;2023-03-23T05:40:12;3.83;;;2.08;;
15246;SDS011;7726;48.820;9.248;2023-03-23T05:42:40;3.60;;;2.38;;
15246;SDS011;7726;48.820;9.248;2023-03-23T05:45:08;3.92;;;2.42;;
15246;SDS011;7726;48.820;9.248;2023-03-23T05:47:35;4.18;;;2.40;;
15246;SDS011;7726;48.820;9.248;2023-03-23T05:50:03;5.35;;;2.50;;
15246;SDS011;7726;48.820;9.248;2023-03-23T05:52:31;5.22;;;2.60;;
15246;SDS011;7726;48.820;9.248;2023-03-23T05:55:00;3.60;;;2.42;;
15246;SDS011;7726;48.820;9.248;2023-03-23T05:57:29;3.78;;;2.33;;
15246;SDS011;7726;48.820;9.248;2023-03-23T05:59:57;4.72;;;2.72;;
15246;SDS011;7726;48.820;9.248;2023-03-23T06:02:25;2.75;;;2.45;;
15246;SDS011;7726;48.820;9.248;2023-03-23T06:04:54;6.68;;;3.30;;
15246;SDS011;7726;48.820;9.248;2023-03-23T06:07:22;5.82;;;2.72;;
15246;SDS011;7726;48.820;9.248;2023-03-23T06:09:50;3.83;;;3.08;;
15246;SDS011;7726;48.820;9.248;2023-03-23T06:12:17;4.47;;;2.95;;
15246;SDS011;7726;48.820;9.248;2023-03-23T06:14:46;4.45;;;2.97;;
15246;SDS011;7726;48.820;9.248;2023-03-23T06:17:14;6.90;;;2.58;;
15246;SDS011;7726;48.820;9.248;2023-03-23T06:19:42;3.80;;;2.28;;
15246;SDS011;7726;48.820;9.248;2023-03-23T06:22:10;3.75;;;2.50;;
15246;SDS011;7726;48.820;9.248;2023-03-23T06:24:37;3.35;;;2.10;;
15246;SDS011;7726;48.820;9.248;2023-03-23T06:27:05;3.47;;;1.85;;
15246;SDS011;7726;48.820;9.248;2023-03-23T06:29:33;1.90;;;1.60;;
15246;SDS011;7726;48.820;9.248;2023-03-23T06:32:02;2.50;;;1.58;;
15246;SDS011;7726;48.820;9.248;2023-03-23T06:34:29;4.60;;;1.80;;
15246;SDS011;7726;48.820;9.248;2023-03-23T06:36:57;1.05;;;1.02;;
15246;SDS011;7726;48.820;9.248;2023-03-23T06:39:25;1.80;;;1.23;;
15246;SDS011;7726;48.820;9.248;2023-03-23T06:41:52;1.75;;;1.45;;
15246;SDS011;7726;48.820;9.248;2023-03-23T06:44:19;2.88;;;1.52;;
15246;SDS011;7726;48.820;9.248;2023-03-23T06:46:46;2.40;;;1.42;;
15246;SDS011;7726;48.820;9.248;2023-03-23T06:49:16;2.10;;;1.90;;
15246;SDS011;7726;48.820;9.248;2023-03-23T06:51:43;2.28;;;1.45;;
15246;SDS011;7726;48.820;9.248;2023-03-23T06:54:10;5.15;;;2.25;;
15246;SDS011;7726;48.820;9.248;2023-03-23T06:56:37;1.70;;;1.60;;
15246;SDS011;7726;48.820;9.248;2023-03-23T06:59:05;1.60;;;1.42;;
15246;SDS011;7726;48.820;9.248;2023-03-23T07:01:32;3.80;;;2.10;;
15246;SDS011;7726;48.820;9.248;2023-03-23T07:03:59;2.85;;;1.70;;
15246;SDS011;7726;48.820;9.248;2023-03-23T07:06:27;2.40;;;1.50;;
15246;SDS011;7726;48.820;9.248;2023-03-23T07:08:54;3.25;;;1.88;;
15246;SDS011;7726;48.820;9.248;2023-03-23T07:11:22;5.38;;;1.98;;
15246;SDS011;7726;48.820;9.248;2023-03-23T07:13:49;4.25;;;2.08;;
15246;SDS011;7726;48.820;9.248;2023-03-23T07:16:16;2.22;;;1.85;;
15246;SDS011;7726;48.820;9.248;2023-03-23T07:18:43;3.58;;;2.38;;
15246;SDS011;7726;48.820;9.248;2023-03-23T07:21:11;4.13;;;2.00;;
15246;SDS011;7726;48.820;9.248;2023-03-23T07:23:39;4.05;;;2.20;;
15246;SDS011;7726;48.820;9.248;2023-03-23T07:26:06;3.75;;;1.80;;
15246;SDS011;7726;48.820;9.248;2023-03-23T07:28:33;3.22;;;1.83;;
15246;SDS011;7726;48.820;9.248;2023-03-23T07:31:01;3.90;;;1.88;;
15246;SDS011;7726;48.820;9.248;2023-03-23T07:33:28;4.88;;;1.70;;
15246;SDS011;7726;48.820;9.248;2023-03-23T07:35:58;4.45;;;1.85;;
15246;SDS011;7726;48.820;9.248;2023-03-23T07:38:26;4.80;;;1.73;;
15246;SDS011;7726;48.820;9.248;2023-03-23T07:40:54;9.10;;;2.50;;
15246;SDS011;7726;48.820;9.248;2023-03-23T07:43:22;28.35;;;3.83;;
15246;SDS011;7726;48.820;9.248;2023-03-23T07:45:50;12.25;;;2.97;;
15246;SDS011;7726;48.820;9.248;2023-03-23T07:48:17;8.48;;;1.92;;
15246;SDS011;7726;48.820;9.248;2023-03-23T07:50:44;6.45;;;2.20;;
15246;SDS011;7726;48.820;9.248;2023-03-23T07:53:12;2.70;;;1.70;;
15246;SDS011;7726;48.820;9.248;2023-03-23T07:55:39;3.25;;;1.70;;
15246;SDS011;7726;48.820;9.248;2023-03-23T07:58:07;3.20;;;1.50;;
15246;SDS011;7726;48.820;9.248;2023-03-23T08:00:34;2.20;;;1.33;;
15246;SDS011;7726;48.820;9.248;2023-03-23T08:03:04;1.52;;;1.27;;
15246;SDS011;7726;48.820;9.248;2023-03-23T08:05:32;1.83;;;1.30;;
15246;SDS011;7726;48.820;9.248;2023-03-23T08:07:59;1.98;;;1.65;;
15246;SDS011;7726;48.820;9.248;2023-03-23T08:10:26;1.60;;;1.50;;
15246;SDS011;7726;48.820;9.248;2023-03-23T08:12:55;1.58;;;1.30;;
15246;SDS011;7726;48.820;9.248;2023-03-23T08:15:25;1.48;;;1.38;;
15246;SDS011;7726;48.820;9.248;2023-03-23T08:17:53;1.67;;;1.35;;
15246;SDS011;7726;48.820;9.248;2023-03-23T08:20:21;1.77;;;1.30;;
15246;SDS011;7726;48.820;9.248;2023-03-23T08:22:51;2.17;;;1.70;;
15246;SDS011;7726;48.820;9.248;2023-03-23T08:25:19;2.72;;;1.52;;
15246;SDS011;7726;48.820;9.248;2023-03-23T08:27:46;3.65;;;1.45;;
15246;SDS011;7726;48.820;9.248;2023-03-23T08:30:14;1.52;;;1.40;;
15246;SDS011;7726;48.820;9.248;2023-03-23T08:32:43;1.73;;;1.60;;
15246;SDS011;7726;48.820;9.248;2023-03-23T08:35:10;2.17;;;1.25;;
15246;SDS011;7726;48.820;9.248;2023-03-23T08:37:39;2.13;;;1.50;;
15246;SDS011;7726;48.820;9.248;2023-03-23T08:40:07;5.05;;;1.55;;
15246;SDS011;7726;48.820;9.248;2023-03-23T08:42:35;1.25;;;1.23;;
15246;SDS011;7726;48.820;9.248;2023-03-23T08:45:03;1.77;;;1.35;;
15246;SDS011;7726;48.820;9.248;2023-03-23T08:47:31;2.45;;;1.52;;
15246;SDS011;7726;48.820;9.248;2023-03-23T08:49:59;3.55;;;1.40;;
15246;SDS011;7726;48.820;9.248;2023-03-23T08:52:27;1.80;;;1.40;;
15246;SDS011;7726;48.820;9.248;2023-03-23T08:54:54;1.83;;;1.50;;
15246;SDS011;7726;48.820;9.248;2023-03-23T08:57:22;1.70;;;1.60;;
15246;SDS011;7726;48.820;9.248;2023-03-23T08:59:49;1.85;;;1.33;;
15246;SDS011;7726;48.820;9.248;2023-03-23T09:02:16;1.40;;;1.30;;
15246;SDS011;7726;48.820;9.248;2023-03-23T09:04:44;1.40;;;1.30;;
15246;SDS011;7726;48.820;9.248;2023-03-23T09:07:12;3.42;;;1.35;;
15246;SDS011;7726;48.820;9.248;2023-03-23T09:09:40;3.75;;;1.75;;
15246;SDS011;7726;48.820;9.248;2023-03-23T09:12:08;2.38;;;1.50;;
15246;SDS011;7726;48.820;9.248;2023-03-23T09:14:35;2.20;;;1.70;;
15246;SDS011;7726;48.820;9.248;2023-03-23T09:17:03;1.75;;;1.65;;
15246;SDS011;7726;48.820;9.248;2023-03-23T09:19:30;1.88;;;1.27;;
15246;SDS011;7726;48.820;9.248;2023-03-23T09:21:58;1.75;;;1.50;;
15246;SDS011;7726;48.820;9.248;2023-03-23T09:24:26;5.25;;;1.48;;
15246;SDS011;7726;48.820;9.248;2023-03-23T09:26:54;2.25;;;1.33;;
15246;SDS011;7726;48.820;9.248;2023-03-23T09:29:21;3.22;;;1.35;;
15246;SDS011;7726;48.820;9.248;2023-03-23T09:31:48;1.40;;;1.30;;
15246;SDS011;7726;48.820;9.248;2023-03-23T09:34:15;1.40;;;1.30;;
15246;SDS011;7726;48.820;9.248;2023-03-23T09:36:42;3.10;;;1.48;;
15246;SDS011;7726;48.820;9.248;2023-03-23T09:39:10;1.65;;;1.55;;
15246;SDS011;7726;48.820;9.248;2023-03-23T09:41:46;1.38;;;1.30;;
15246;SDS011;7726;48.820;9.248;2023-03-23T09:44:19;3.22;;;1.52;;
15246;SDS011;7726;48.820;9.248;2023-03-23T09:46:52;3.97;;;1.65;;
15246;SDS011;7726;48.820;9.248;2023-03-23T09:49:23;1.75;;;1.50;;
15246;SDS011;7726;48.820;9.248;2023-03-23T09:51:53;2.85;;;1.48;;
15246;SDS011;7726;48.820;9.248;2023-03-23T09:54:23;2.60;;;1.42;;
15246;SDS011;7726;48.820;9.248;2023-03-23T09:56:53;2.17;;;1.50;;
15246;SDS011;7726;48.820;9.248;2023-03-23T09:59:23;1.50;;;1.40;;
15246;SDS011;7726;48.820;9.248;2023-03-23T10:01:51;1.85;;;1.33;;
15246;SDS011;7726;48.820;9.248;2023-03-23T10:04:24;3.30;;;1.40;;
15246;SDS011;7726;48.820;9.248;2023-03-23T10:06:52;2.17;;;1.30;;
15246;SDS011;7726;48.820;9.248;2023-03-23T10:09:20;2.30;;;1.33;;
15246;SDS011;7726;48.820;9.248;2023-03-23T10:11:50;1.90;;;1.30;;
15246;SDS011;7726;48.820;9.248;2023-03-23T10:14:24;2.00;;;1.10;;
15246;SDS011;7726;48.820;9.248;2023-03-23T10:16:55;2.20;;;1.33;;
15246;SDS011;7726;48.820;9.248;2023-03-23T10:19:25;1.45;;;1.33;;
15246;SDS011;7726;48.820;9.248;2023-03-23T10:21:55;1.40;;;1.13;;
15246;SDS011;7726;48.820;9.248;2023-03-23T10:24:25;1.10;;;1.10;;
15246;SDS011;7726;48.820;9.248;2023-03-23T10:26:55;1.38;;;1.30;;
15246;SDS011;7726;48.820;9.248;2023-03-23T10:29:28;1.27;;;1.17;;
15246;SDS011;7726;48.820;9.248;2023-03-23T10:31:58;2.97;;;1.45;;
15246;SDS011;7726;48.820;9.248;2023-03-23T10:34:28;3.25;;;1.35;;
15246;SDS011;7726;48.820;9.248;2023-03-23T10:36:59;1.45;;;1.10;;
15246;SDS011;7726;48.820;9.248;2023-03-23T10:39:29;1.20;;;1.10;;
15246;SDS011;7726;48.820;9.248;2023-03-23T10:41:59;1.90;;;1.70;;
15246;SDS011;7726;48.820;9.248;2023-03-23T10:44:33;1.13;;;1.13;;
15246;SDS011;7726;48.820;9.248;2023-03-23T10:47:01;2.05;;;1.50;;
15246;SDS011;7726;48.820;9.248;2023-03-23T10:49:30;1.58;;;1.10;;
15246;SDS011;7726;48.820;9.248;2023-03-23T10:52:00;1.38;;;1.10;;
15246;SDS011;7726;48.820;9.248;2023-03-23T10:54:32;2.08;;;1.40;;
15246;SDS011;7726;48.820;9.248;2023-03-23T10:57:00;2.88;;;1.27;;
15246;SDS011;7726;48.820;9.248;2023-03-23T10:59:27;2.47;;;1.40;;
15246;SDS011;7726;48.820;9.248;2023-03-23T11:01:58;2.40;;;1.45;;
15246;SDS011;7726;48.820;9.248;2023-03-23T11:04:27;1.35;;;1.25;;
15246;SDS011;7726;48.820;9.248;2023-03-23T11:06:58;1.42;;;1.35;;
15246;SDS011;7726;48.820;9.248;2023-03-23T11:09:33;1.30;;;1.20;;
15246;SDS011;7726;48.820;9.248;2023-03-23T11:12:00;1.90;;;1.33;;
15246;SDS011;7726;48.820;9.248;2023-03-23T11:14:28;1.65;;;1.38;;
15246;SDS011;7726;48.820;9.248;2023-03-23T11:16:57;3.13;;;1.60;;
15246;SDS011;7726;48.820;9.248;2023-03-23T11:19:27;2.13;;;1.40;;
15246;SDS011;7726;48.820;9.248;2023-03-23T11:21:57;3.47;;;1.60;;
15246;SDS011;7726;48.820;9.248;2023-03-23T11:24:25;1.27;;;1.20;;
15246;SDS011;7726;48.820;9.248;2023-03-23T11:26:53;3.08;;;1.40;;
15246;SDS011;7726;48.820;9.248;2023-03-23T11:29:21;1.50;;;1.40;;
15246;SDS011;7726;48.820;9.248;2023-03-23T11:31:49;1.73;;;1.35;;
15246;SDS011;7726;48.820;9.248;2023-03-23T11:34:19;3.17;;;1.40;;
15246;SDS011;7726;48.820;9.248;2023-03-23T11:36:47;1.60;;;1.20;;
15246;SDS011;7726;48.820;9.248;2023-03-23T11:39:22;1.40;;;1.30;;
15246;SDS011;7726;48.820;9.248;2023-03-23T11:41:50;2.72;;;1.30;;
15246;SDS011;7726;48.820;9.248;2023-03-23T11:44:17;1.80;;;1.20;;
15246;SDS011;7726;48.820;9.248;2023-03-23T11:46:47;2.05;;;1.40;;
15246;SDS011;7726;48.820;9.248;2023-03-23T11:49:20;1.95;;;1.40;;
15246;SDS011;7726;48.820;9.248;2023-03-23T11:51:51;3.28;;;1.40;;
15246;SDS011;7726;48.820;9.248;2023-03-23T11:54:24;1.95;;;1.30;;
15246;SDS011;7726;48.820;9.248;2023-03-23T11:56:53;3.08;;;1.50;;
15246;SDS011;7726;48.820;9.248;2023-03-23T11:59:26;1.50;;;1.40;;
15246;SDS011;7726;48.820;9.248;2023-03-23T12:01:55;2.88;;;1.60;;
15246;SDS011;7726;48.820;9.248;2023-03-23T12:04:43;2.10;;;1.50;;
15246;SDS011;7726;48.820;9.248;2023-03-23T12:07:26;1.40;;;1.30;;
15246;SDS011;7726;48.820;9.248;2023-03-23T12:09:58;1.63;;;1.52;;
15246;SDS011;7726;48.820;9.248;2023-03-23T12:12:31;1.70;;;1.60;;
15246;SDS011;7726;48.820;9.248;2023-03-23T12:15:03;2.10;;;1.45;;
15246;SDS011;7726;48.820;9.248;2023-03-23T12:17:33;1.70;;;1.55;;
15246;SDS011;7726;48.820;9.248;2023-03-23T12:20:10;1.33;;;1.13;;
15246;SDS011;7726;48.820;9.248;2023-03-23T12:22:44;1.98;;;1.67;;
15246;SDS011;7726;48.820;9.248;2023-03-23T12:25:30;1.83;;;1.70;;
15246;SDS011;7726;48.820;9.248;2023-03-23T12:28:03;1.83;;;1.52;;
15246;SDS011;7726;48.820;9.248;2023-03-23T12:30:35;1.88;;;1.15;;
15246;SDS011;7726;48.820;9.248;2023-03-23T12:33:16;2.28;;;1.30;;
15246;SDS011;7726;48.820;9.248;2023-03-23T12:35:52;1.80;;;1.52;;
15246;SDS011;7726;48.820;9.248;2023-03-23T12:41:14;2.28;;;1.48;;
15246;SDS011;7726;48.820;9.248;2023-03-23T12:43:45;2.17;;;1.30;;
15246;SDS011;7726;48.820;9.248;2023-03-23T12:46:20;2.22;;;1.73;;
15246;SDS011;7726;48.820;9.248;2023-03-23T12:48:50;2.08;;;1.55;;
15246;SDS011;7726;48.820;9.248;2023-03-23T12:51:21;1.20;;;1.10;;
15246;SDS011;7726;48.820;9.248;2023-03-23T12:53:52;2.53;;;1.20;;
15246;SDS011;7726;48.820;9.248;2023-03-23T12:56:21;1.50;;;1.40;;
15246;SDS011;7726;48.820;9.248;2023-03-23T12:58:49;1.38;;;1.10;;
15246;SDS011;7726;48.820;9.248;2023-03-23T13:01:18;1.75;;;1.65;;
15246;SDS011;7726;48.820;9.248;2023-03-23T13:03:49;1.77;;;1.20;;
15246;SDS011;7726;48.820;9.248;2023-03-23T13:06:20;2.53;;;1.23;;
15246;SDS011;7726;48.820;9.248;2023-03-23T13:08:52;2.22;;;1.52;;
15246;SDS011;7726;48.820;9.248;2023-03-23T13:11:22;2.15;;;1.70;;
15246;SDS011;7726;48.820;9.248;2023-03-23T13:13:51;1.60;;;1.50;;
15246;SDS011;7726;48.820;9.248;2023-03-23T13:16:26;1.60;;;1.50;;
15246;SDS011;7726;48.820;9.248;2023-03-23T13:18:59;1.40;;;1.30;;
15246;SDS011;7726;48.820;9.248;2023-03-23T13:21:27;2.25;;;1.50;;
15246;SDS011;7726;48.820;9.248;2023-03-23T13:23:59;1.52;;;1.20;;
15246;SDS011;7726;48.820;9.248;2023-03-23T13:26:28;1.40;;;1.30;;
15246;SDS011;7726;48.820;9.248;2023-03-23T13:28:57;1.55;;;1.30;;
15246;SDS011;7726;48.820;9.248;2023-03-23T13:31:27;3.55;;;1.90;;
15246;SDS011;7726;48.820;9.248;2023-03-23T13:33:58;1.70;;;1.60;;
15246;SDS011;7726;48.820;9.248;2023-03-23T13:36:27;2.33;;;1.73;;
15246;SDS011;7726;48.820;9.248;2023-03-23T13:38:54;2.25;;;1.80;;
15246;SDS011;7726;48.820;9.248;2023-03-23T13:41:25;4.30;;;1.90;;
15246;SDS011;7726;48.820;9.248;2023-03-23T13:43:52;2.10;;;1.75;;
15246;SDS011;7726;48.820;9.248;2023-03-23T13:46:31;1.77;;;1.38;;
15246;SDS011;7726;48.820;9.248;2023-03-23T13:49:13;1.77;;;1.48;;
15246;SDS011;7726;48.820;9.248;2023-03-23T13:51:47;3.38;;;1.85;;
15246;SDS011;7726;48.820;9.248;2023-03-23T13:54:19;4.43;;;1.73;;
15246;SDS011;7726;48.820;9.248;2023-03-23T13:56:54;2.97;;;1.83;;
15246;SDS011;7726;48.820;9.248;2023-03-23T13:59:29;2.05;;;1.85;;
15246;SDS011;7726;48.820;9.248;2023-03-23T14:02:20;7.60;;;1.83;;
15246;SDS011;7726;48.820;9.248;2023-03-23T14:04:44;1.70;;;1.60;;
15246;SDS011;7726;48.820;9.248;2023-03-23T14:07:15;3.60;;;1.73;;
15246;SDS011;7726;48.820;9.248;2023-03-23T14:09:44;1.88;;;1.77;;
15246;SDS011;7726;48.820;9.248;2023-03-23T14:12:15;2.30;;;1.70;;
15246;SDS011;7726;48.820;9.248;2023-03-23T14:14:44;1.70;;;1.60;;
15246;SDS011;7726;48.820;9.248;2023-03-23T14:17:13;3.80;;;1.60;;
15246;SDS011;7726;48.820;9.248;2023-03-23T14:19:42;3.22;;;1.50;;
15246;SDS011;7726;48.820;9.248;2023-03-23T14:22:17;1.58;;;1.35;;
15246;SDS011;7726;48.820;9.248;2023-03-23T14:24:44;4.00;;;1.90;;
15246;SDS011;7726;48.820;9.248;2023-03-23T14:27:12;2.55;;;1.60;;
15246;SDS011;7726;48.820;9.248;2023-03-23T14:29:41;1.67;;;1.58;;
15246;SDS011;7726;48.820;9.248;2023-03-23T14:32:10;3.45;;;1.67;;
15246;SDS011;7726;48.820;9.248;2023-03-23T14:34:39;1.75;;;1.40;;
15246;SDS011;7726;48.820;9.248;2023-03-23T14:37:08;2.15;;;1.55;;
15246;SDS011;7726;48.820;9.248;2023-03-23T14:39:36;2.67;;;1.98;;
15246;SDS011;7726;48.820;9.248;2023-03-23T14:42:04;1.63;;;1.50;;
15246;SDS011;7726;48.820;9.248;2023-03-23T14:44:34;1.95;;;1.80;;
15246;SDS011;7726;48.820;9.248;2023-03-23T14:47:04;2.45;;;1.70;;
15246;SDS011;7726;48.820;9.248;2023-03-23T14:49:32;2.72;;;2.00;;
15246;SDS011;7726;48.820;9.248;2023-03-23T14:52:02;2.90;;;1.50;;
15246;SDS011;7726;48.820;9.248;2023-03-23T14:54:31;2.63;;;1.50;;
15246;SDS011;7726;48.820;9.248;2023-03-23T14:57:02;3.17;;;1.70;;
15246;SDS011;7726;48.820;9.248;2023-03-23T14:59:30;3.80;;;1.77;;
15246;SDS011;7726;48.820;9.248;2023-03-23T15:01:57;1.65;;;1.50;;
15246;SDS011;7726;48.820;9.248;2023-03-23T15:04:28;1.65;;;1.50;;
15246;SDS011;7726;48.820;9.248;2023-03-23T15:06:55;2.30;;;1.70;;
15246;SDS011;7726;48.820;9.248;2023-03-23T15:09:25;3.47;;;1.67;;
15246;SDS011;7726;48.820;9.248;2023-03-23T15:11:54;1.33;;;1.33;;
15246;SDS011;7726;48.820;9.248;2023-03-23T15:14:22;2.08;;;1.80;;
15246;SDS011;7726;48.820;9.248;2023-03-23T15:16:50;1.75;;;1.65;;
15246;SDS011;7726;48.820;9.248;2023-03-23T15:19:19;1.80;;;1.70;;
15246;SDS011;7726;48.820;9.248;2023-03-23T15:21:49;1.90;;;1.70;;